createdAt,value
2019-03-29T00:00:23.110Z,20.77
2019-03-29T00:02:53.031Z,21.33
2019-03-29T00:05:21.440Z,18.63
2019-03-29T00:07:49.811Z,26.97
2019-03-29T00:10:18.356Z,20.60
2019-03-29T00:12:46.738Z,28.20
2019-03-29T00:15:15.067Z,21.80
2019-03-29T00:17:44.148Z,26.20
2019-03-29T00:20:12.591Z,26.20
2019-03-29T00:22:40.929Z,22.83
2019-03-29T00:25:09.448Z,22.70
2019-03-29T00:27:37.684Z,25.53
2019-03-29T00:30:06.357Z,26.50
2019-03-29T00:32:34.602Z,25.57
2019-03-29T00:35:02.984Z,24.00
2019-03-29T00:37:32.740Z,26.43
2019-03-29T00:40:00.967Z,23.87
2019-03-29T00:42:29.498Z,25.87
2019-03-29T00:44:57.811Z,18.00
2019-03-29T00:47:26.222Z,17.50
2019-03-29T00:49:54.663Z,19.10
2019-03-29T00:52:23.063Z,25.03
2019-03-29T00:54:51.599Z,19.57
2019-03-29T00:57:19.863Z,23.60
2019-03-29T00:59:48.248Z,22.83
2019-03-29T01:02:16.674Z,23.63
2019-03-29T01:04:45.119Z,21.27
2019-03-29T01:07:13.588Z,24.87
2019-03-29T01:09:41.991Z,23.60
2019-03-29T01:12:10.444Z,22.93
2019-03-29T01:14:38.832Z,24.80
2019-03-29T01:17:08.072Z,21.93
2019-03-29T01:19:36.329Z,22.47
2019-03-29T01:22:05.245Z,24.00
2019-03-29T01:24:34.470Z,17.57
2019-03-29T01:27:02.883Z,23.50
2019-03-29T01:29:31.284Z,22.13
2019-03-29T01:31:59.711Z,18.40
2019-03-29T01:34:28.271Z,22.53
2019-03-29T01:36:57.776Z,24.67
2019-03-29T01:39:26.151Z,20.37
2019-03-29T01:41:54.983Z,22.83
2019-03-29T01:44:23.315Z,23.57
2019-03-29T01:46:51.543Z,21.93
2019-03-29T01:49:19.791Z,19.87
2019-03-29T01:51:48.133Z,22.40
2019-03-29T01:54:16.402Z,24.57
2019-03-29T01:56:44.781Z,19.57
2019-03-29T01:59:13.211Z,19.30
2019-03-29T02:01:41.520Z,20.77
2019-03-29T02:04:09.984Z,22.57
2019-03-29T02:06:38.400Z,23.83
2019-03-29T02:09:07.258Z,21.80
2019-03-29T02:11:35.570Z,18.67
2019-03-29T02:14:04.131Z,22.33
2019-03-29T02:16:32.423Z,23.73
2019-03-29T02:19:00.803Z,23.73
2019-03-29T02:21:29.771Z,19.87
2019-03-29T02:23:58.199Z,22.33
2019-03-29T02:26:26.517Z,22.03
2019-03-29T02:28:54.738Z,19.93
2019-03-29T02:31:25.782Z,25.03
2019-03-29T02:33:53.345Z,24.47
2019-03-29T02:36:21.784Z,19.67
2019-03-29T02:38:55.471Z,24.67
2019-03-29T02:41:19.967Z,19.20
2019-03-29T02:43:48.350Z,22.07
2019-03-29T02:46:16.708Z,22.83
2019-03-29T02:48:45.153Z,20.33
2019-03-29T02:51:13.612Z,22.67
2019-03-29T02:53:41.986Z,22.03
2019-03-29T02:56:10.292Z,19.20
2019-03-29T02:58:38.560Z,18.33
2019-03-29T03:01:06.903Z,21.33
2019-03-29T03:03:35.225Z,18.30
2019-03-29T03:06:03.631Z,24.73
2019-03-29T03:08:33.166Z,17.07
2019-03-29T03:11:01.672Z,22.37
2019-03-29T03:13:30.112Z,15.60
2019-03-29T03:15:58.513Z,20.73
2019-03-29T03:18:26.914Z,21.10
2019-03-29T03:20:55.126Z,18.83
2019-03-29T03:23:23.482Z,16.40
2019-03-29T03:25:51.848Z,19.90
2019-03-29T03:28:20.286Z,19.13
2019-03-29T03:30:48.811Z,18.90
2019-03-29T03:33:17.260Z,18.00
2019-03-29T03:35:45.644Z,20.77
2019-03-29T03:38:13.965Z,19.37
2019-03-29T03:40:42.273Z,17.97
2019-03-29T03:43:10.548Z,22.20
2019-03-29T03:45:38.976Z,15.50
2019-03-29T03:48:07.364Z,21.40
2019-03-29T03:50:37.201Z,18.93
2019-03-29T03:53:05.557Z,19.60
2019-03-29T03:55:33.939Z,19.47
2019-03-29T03:58:03.671Z,20.77
2019-03-29T04:00:33.801Z,23.07
2019-03-29T04:03:02.152Z,22.27
2019-03-29T04:05:30.540Z,21.43
2019-03-29T04:07:59.029Z,18.80
2019-03-29T04:10:27.397Z,23.43
2019-03-29T04:12:55.883Z,21.97
2019-03-29T04:15:24.157Z,20.23
2019-03-29T04:17:52.540Z,22.67
2019-03-29T04:20:20.890Z,21.53
2019-03-29T04:22:49.212Z,19.80
2019-03-29T04:25:17.560Z,20.37
2019-03-29T04:27:45.903Z,21.57
2019-03-29T04:30:14.336Z,21.17
2019-03-29T04:32:42.815Z,21.90
2019-03-29T04:35:11.140Z,17.00
2019-03-29T04:37:39.665Z,17.77
2019-03-29T04:40:09.003Z,25.03
2019-03-29T04:42:37.477Z,23.17
2019-03-29T04:45:06.034Z,21.73
2019-03-29T04:47:34.556Z,19.50
2019-03-29T04:50:03.320Z,25.57
2019-03-29T04:52:31.659Z,23.47
2019-03-29T04:55:01.201Z,23.07
2019-03-29T04:57:29.483Z,23.80
2019-03-29T04:59:57.780Z,24.23
2019-03-29T05:02:27.329Z,24.37
2019-03-29T05:04:55.571Z,21.83
2019-03-29T05:07:23.857Z,20.67
2019-03-29T05:09:52.208Z,19.87
2019-03-29T05:12:20.589Z,18.70
2019-03-29T05:14:49.049Z,24.27
2019-03-29T05:17:17.482Z,24.23
2019-03-29T05:19:45.846Z,20.53
2019-03-29T05:22:14.186Z,19.13
2019-03-29T05:24:42.507Z,20.37
2019-03-29T05:27:11.892Z,22.77
2019-03-29T05:29:40.227Z,20.83
2019-03-29T05:32:08.604Z,18.77
2019-03-29T05:34:36.823Z,20.00
2019-03-29T05:37:05.347Z,24.43
2019-03-29T05:39:33.704Z,22.13
2019-03-29T05:42:02.100Z,20.97
2019-03-29T05:44:30.491Z,23.97
2019-03-29T05:46:58.903Z,23.90
2019-03-29T05:49:27.341Z,23.67
2019-03-29T05:51:55.733Z,22.27
2019-03-29T05:54:24.154Z,20.53
2019-03-29T05:56:52.616Z,20.93
2019-03-29T05:59:21.111Z,24.83
2019-03-29T06:01:49.511Z,21.77
2019-03-29T06:04:18.079Z,22.20
2019-03-29T06:06:46.403Z,19.90
2019-03-29T06:09:14.925Z,22.83
2019-03-29T06:11:43.309Z,22.50
2019-03-29T06:14:11.800Z,19.83
2019-03-29T06:16:40.079Z,21.40
2019-03-29T06:19:08.263Z,21.83
2019-03-29T06:21:36.725Z,20.43
2019-03-29T06:24:05.203Z,18.17
2019-03-29T06:26:33.633Z,17.07
2019-03-29T06:29:02.083Z,17.70
2019-03-29T06:31:30.472Z,16.10
2019-03-29T06:33:59.947Z,16.80
2019-03-29T06:36:29.405Z,15.67
2019-03-29T06:38:58.739Z,18.30
2019-03-29T06:41:27.087Z,16.03
2019-03-29T06:43:55.326Z,17.53
2019-03-29T06:46:23.783Z,14.97
2019-03-29T06:48:52.276Z,16.17
2019-03-29T06:51:20.673Z,15.40
2019-03-29T06:53:52.376Z,16.70
2019-03-29T06:56:19.048Z,16.17
2019-03-29T06:58:47.360Z,17.80
2019-03-29T07:01:15.841Z,14.70
2019-03-29T07:03:44.333Z,19.90
2019-03-29T07:06:12.743Z,15.93
2019-03-29T07:08:41.159Z,17.27
2019-03-29T07:11:17.102Z,17.17
2019-03-29T07:13:39.594Z,17.23
2019-03-29T07:16:07.894Z,20.63
2019-03-29T07:18:36.309Z,16.40
2019-03-29T07:21:04.810Z,18.53
2019-03-29T07:23:33.164Z,16.40
2019-03-29T07:26:01.593Z,17.73
2019-03-29T07:28:29.979Z,17.17
2019-03-29T07:30:58.408Z,14.87
2019-03-29T07:33:26.787Z,17.60
2019-03-29T07:35:55.071Z,17.80
2019-03-29T07:38:23.464Z,15.90
2019-03-29T07:40:51.956Z,16.07
2019-03-29T07:43:24.018Z,13.17
2019-03-29T07:45:51.386Z,16.60
2019-03-29T07:48:19.716Z,14.03
2019-03-29T07:50:49.181Z,17.37
2019-03-29T07:53:17.583Z,14.03
2019-03-29T07:55:46.004Z,15.87
2019-03-29T07:58:14.379Z,11.57
2019-03-29T08:00:42.754Z,9.23
2019-03-29T08:03:11.086Z,10.60
2019-03-29T08:05:39.544Z,10.00
2019-03-29T08:08:07.893Z,9.03
2019-03-29T08:10:36.162Z,11.03
2019-03-29T08:13:04.483Z,10.40
2019-03-29T08:15:32.906Z,10.70
2019-03-29T08:18:01.892Z,11.30
2019-03-29T08:20:43.253Z,13.97
2019-03-29T08:23:00.577Z,11.83
2019-03-29T08:25:28.905Z,13.57
2019-03-29T08:27:57.226Z,12.80
2019-03-29T08:30:25.475Z,16.93
2019-03-29T08:32:53.825Z,12.50
2019-03-29T08:35:22.320Z,15.87
2019-03-29T08:37:50.725Z,15.60
2019-03-29T08:40:19.173Z,13.97
2019-03-29T08:42:49.799Z,12.00
2019-03-29T08:48:08.544Z,11.97
2019-03-29T08:50:37.027Z,12.93
2019-03-29T08:53:05.485Z,6.93
2019-03-29T08:55:45.031Z,9.27
2019-03-29T08:58:05.001Z,9.50
2019-03-29T09:00:33.558Z,9.37
2019-03-29T09:03:02.448Z,9.67
2019-03-29T09:05:30.795Z,10.97
2019-03-29T09:07:59.185Z,7.90
2019-03-29T09:10:30.369Z,9.70
2019-03-29T09:12:58.726Z,9.17
2019-03-29T09:15:27.265Z,8.80
2019-03-29T09:17:59.652Z,9.00
2019-03-29T09:20:27.468Z,10.00
2019-03-29T09:22:55.953Z,9.03
2019-03-29T09:25:24.265Z,9.53
2019-03-29T09:27:52.685Z,9.83
2019-03-29T09:30:21.179Z,10.70
2019-03-29T09:32:51.295Z,8.23
2019-03-29T09:35:19.605Z,9.33
2019-03-29T09:37:47.940Z,9.40
2019-03-29T09:40:16.434Z,9.57
2019-03-29T09:42:45.884Z,7.93
2019-03-29T09:45:14.356Z,8.93
2019-03-29T09:47:42.715Z,9.10
2019-03-29T09:50:11.186Z,7.77
2019-03-29T09:52:39.510Z,8.70
2019-03-29T09:55:08.074Z,7.87
2019-03-29T09:57:37.897Z,10.63
2019-03-29T10:00:17.974Z,11.40
2019-03-29T10:02:37.027Z,9.87
2019-03-29T10:05:05.589Z,8.23
2019-03-29T10:07:33.978Z,8.77
2019-03-29T10:10:02.343Z,7.83
2019-03-29T10:12:42.639Z,7.00
2019-03-29T10:15:01.947Z,7.73
2019-03-29T10:17:30.257Z,7.60
2019-03-29T10:19:58.599Z,6.83
2019-03-29T10:22:26.912Z,7.97
2019-03-29T10:24:55.204Z,9.10
2019-03-29T10:27:23.535Z,8.53
2019-03-29T10:29:51.934Z,7.43
2019-03-29T10:32:21.420Z,8.47
2019-03-29T10:34:49.704Z,6.40
2019-03-29T10:37:17.972Z,8.03
2019-03-29T10:39:47.293Z,7.40
2019-03-29T10:42:15.570Z,7.07
2019-03-29T10:44:44.008Z,7.17
2019-03-29T10:47:12.304Z,6.07
2019-03-29T10:49:40.651Z,5.23
2019-03-29T10:52:08.944Z,6.03
2019-03-29T10:54:37.451Z,6.80
2019-03-29T10:57:05.753Z,6.60
2019-03-29T10:59:34.402Z,6.93
2019-03-29T11:02:02.847Z,6.63
2019-03-29T11:04:32.053Z,5.77
2019-03-29T11:07:00.771Z,6.00
2019-03-29T11:09:29.158Z,6.23
2019-03-29T11:11:57.539Z,7.07
2019-03-29T11:14:25.967Z,6.13
2019-03-29T11:16:54.291Z,6.10
2019-03-29T11:19:22.543Z,5.07
2019-03-29T11:21:51.079Z,6.33
2019-03-29T11:24:19.424Z,6.50
2019-03-29T11:26:47.810Z,6.77
2019-03-29T11:29:16.124Z,6.63
2019-03-29T11:31:44.510Z,6.53
2019-03-29T11:34:12.867Z,8.23
2019-03-29T11:36:41.219Z,7.87
2019-03-29T11:39:09.722Z,6.93
2019-03-29T11:41:38.110Z,5.97
2019-03-29T11:44:06.561Z,5.77
2019-03-29T11:46:34.987Z,6.67
2019-03-29T11:49:03.446Z,5.80
2019-03-29T11:51:31.811Z,5.93
2019-03-29T11:54:00.147Z,6.00
2019-03-29T11:56:29.042Z,6.23
2019-03-29T11:58:57.406Z,5.57
2019-03-29T12:01:25.959Z,5.10
2019-03-29T12:03:54.319Z,7.10
2019-03-29T12:06:22.799Z,7.13
2019-03-29T12:08:51.299Z,6.60
2019-03-29T12:11:19.570Z,6.33
2019-03-29T12:13:48.064Z,5.73
2019-03-29T12:16:16.426Z,5.33
2019-03-29T12:18:44.859Z,6.80
2019-03-29T12:21:13.219Z,7.10
2019-03-29T12:23:41.487Z,6.30
2019-03-29T12:26:09.843Z,6.97
2019-03-29T12:28:38.340Z,7.33
2019-03-29T12:31:07.639Z,6.70
2019-03-29T12:33:35.895Z,7.17
2019-03-29T12:36:04.360Z,6.33
2019-03-29T12:38:32.799Z,6.10
2019-03-29T12:41:01.261Z,6.83
2019-03-29T12:43:29.592Z,5.93
2019-03-29T12:45:58.020Z,6.63
2019-03-29T12:48:26.504Z,5.63
2019-03-29T12:50:54.898Z,5.53
2019-03-29T12:53:23.459Z,5.93
2019-03-29T12:55:51.840Z,5.43
2019-03-29T12:58:20.248Z,6.60
2019-03-29T13:00:48.744Z,5.67
2019-03-29T13:03:17.103Z,8.07
2019-03-29T13:05:45.440Z,5.83
2019-03-29T13:08:13.940Z,6.40
2019-03-29T13:10:42.762Z,6.13
2019-03-29T13:13:12.428Z,7.10
2019-03-29T13:15:40.846Z,7.03
2019-03-29T13:18:09.251Z,5.90
2019-03-29T13:20:37.733Z,6.37
2019-03-29T13:23:06.078Z,6.47
2019-03-29T13:25:34.450Z,5.43
2019-03-29T13:28:02.883Z,7.37
2019-03-29T13:30:31.287Z,5.77
2019-03-29T13:32:59.667Z,5.77
2019-03-29T13:35:27.918Z,6.30
2019-03-29T13:37:56.275Z,6.47
2019-03-29T13:40:24.723Z,6.90
2019-03-29T13:42:53.003Z,5.53
2019-03-29T13:45:21.330Z,6.37
2019-03-29T13:47:49.633Z,6.33
2019-03-29T13:50:18.076Z,7.60
2019-03-29T13:52:46.430Z,7.60
2019-03-29T13:55:14.818Z,7.33
2019-03-29T13:57:43.168Z,6.50
2019-03-29T14:00:12.219Z,7.83
2019-03-29T14:02:40.633Z,5.13
2019-03-29T14:05:09.130Z,5.03
2019-03-29T14:07:37.501Z,5.30
2019-03-29T14:10:06.887Z,4.77
2019-03-29T14:12:35.275Z,5.70
2019-03-29T14:15:04.346Z,5.30
2019-03-29T14:17:32.920Z,6.30
2019-03-29T14:20:01.344Z,5.77
2019-03-29T14:22:30.802Z,7.30
2019-03-29T14:24:59.205Z,6.40
2019-03-29T14:27:27.592Z,6.17
2019-03-29T14:30:04.369Z,5.27
2019-03-29T14:32:25.983Z,5.23
2019-03-29T14:34:54.299Z,6.90
2019-03-29T14:37:22.663Z,6.20
2019-03-29T14:39:50.882Z,7.77
2019-03-29T14:42:19.251Z,7.00
2019-03-29T14:44:52.631Z,7.10
2019-03-29T14:47:17.608Z,6.73
2019-03-29T14:49:45.900Z,7.53
2019-03-29T14:52:14.310Z,7.30
2019-03-29T14:54:42.725Z,6.77
2019-03-29T14:57:11.123Z,8.83
2019-03-29T14:59:39.523Z,8.00
2019-03-29T15:02:07.874Z,6.13
2019-03-29T15:04:42.864Z,8.67
2019-03-29T15:09:06.155Z,9.57
2019-03-29T15:11:34.769Z,9.90
2019-03-29T15:14:03.223Z,8.77
2019-03-29T15:16:31.544Z,9.37
2019-03-29T15:19:16.068Z,8.17
2019-03-29T15:21:46.625Z,9.57
2019-03-29T15:24:15.308Z,9.77
2019-03-29T15:26:43.581Z,10.03
2019-03-29T15:29:13.653Z,7.90
2019-03-29T15:31:55.215Z,9.07
2019-03-29T15:57:05.485Z,12.23
2019-03-29T16:54:44.812Z,10.03
2019-03-29T16:57:39.955Z,9.53
2019-03-29T17:00:28.654Z,8.37
2019-03-29T17:03:31.251Z,9.20
2019-03-29T17:06:19.805Z,8.63
2019-03-29T17:09:19.989Z,10.23
2019-03-29T17:12:05.129Z,7.57
2019-03-29T17:14:54.953Z,9.77
2019-03-29T17:17:41.876Z,10.33
2019-03-29T17:20:22.034Z,9.73
2019-03-29T17:23:08.904Z,9.17
2019-03-29T17:25:53.352Z,7.93
2019-03-29T17:28:35.487Z,8.13
2019-03-29T17:31:37.074Z,6.87
2019-03-29T17:34:20.884Z,7.50
2019-03-29T17:37:05.748Z,9.50
2019-03-29T17:39:53.597Z,10.07
2019-03-29T17:42:39.154Z,9.10
2019-03-29T17:45:33.644Z,10.73
2019-03-29T17:48:27.051Z,11.03
2019-03-29T17:51:15.937Z,10.60
2019-03-29T17:54:06.775Z,11.83
2019-03-29T17:56:53.580Z,11.90
2019-03-29T17:59:50.680Z,10.70
2019-03-29T18:02:43.616Z,10.97
2019-03-29T18:05:29.151Z,10.80
2019-03-29T18:08:15.321Z,12.37
2019-03-29T18:11:06.413Z,7.57
2019-03-29T18:14:20.077Z,11.60
2019-03-29T18:17:10.347Z,11.77
2019-03-29T18:20:01.885Z,11.77
2019-03-29T18:23:02.710Z,10.70
2019-03-29T18:26:11.960Z,10.43
2019-03-29T18:28:59.616Z,11.17
2019-03-29T18:31:49.787Z,10.40
2019-03-29T18:34:42.824Z,8.70
2019-03-29T18:37:23.762Z,10.93
2019-03-29T18:40:26.250Z,9.63
2019-03-29T18:43:11.282Z,10.67
2019-03-29T18:46:21.912Z,9.33
2019-03-29T18:49:09.843Z,9.67
2019-03-29T18:51:56.243Z,10.50
2019-03-29T18:54:41.444Z,8.97
2019-03-29T18:57:38.248Z,9.13
2019-03-29T19:00:39.560Z,9.90
2019-03-29T19:07:03.007Z,8.53
2019-03-29T19:09:42.932Z,8.13
2019-03-29T19:12:23.014Z,10.13
2019-03-29T19:15:19.794Z,8.30
2019-03-29T19:18:12.286Z,8.87
2019-03-29T19:21:04.976Z,10.37
2019-03-29T19:27:17.866Z,8.77
2019-03-29T19:30:05.455Z,9.27
2019-03-29T19:32:40.855Z,8.37
2019-03-29T19:35:18.238Z,8.80
2019-03-29T19:37:58.234Z,8.43
2019-03-29T19:40:41.762Z,10.27
2019-03-29T19:43:27.905Z,8.97
2019-03-29T19:46:05.576Z,9.33
2019-03-29T19:48:42.912Z,9.57
2019-03-29T19:51:13.083Z,10.97
2019-03-29T19:53:41.371Z,9.67
2019-03-29T19:56:10.804Z,10.03
2019-03-29T19:58:39.186Z,10.07
2019-03-29T20:01:07.585Z,9.33
2019-03-29T20:03:35.993Z,8.53
2019-03-29T20:06:04.328Z,8.97
2019-03-29T20:08:32.750Z,11.90
2019-03-29T20:11:01.110Z,10.53
2019-03-29T20:13:29.452Z,11.07
2019-03-29T20:15:57.859Z,10.10
2019-03-29T20:18:26.151Z,10.27
2019-03-29T20:20:54.543Z,9.90
2019-03-29T20:23:23.909Z,9.53
2019-03-29T20:25:52.164Z,11.00
2019-03-29T20:28:20.665Z,10.27
2019-03-29T20:30:49.033Z,9.50
2019-03-29T20:33:17.370Z,10.47
2019-03-29T20:35:45.813Z,11.33
2019-03-29T20:38:14.259Z,9.67
2019-03-29T20:40:43.668Z,12.00
2019-03-29T20:43:11.986Z,10.67
2019-03-29T20:45:40.202Z,11.13
2019-03-29T20:48:08.523Z,10.73
2019-03-29T20:50:36.894Z,12.23
2019-03-29T20:53:05.285Z,12.87
2019-03-29T20:55:33.881Z,12.23
2019-03-29T20:58:02.153Z,11.43
2019-03-29T21:00:30.512Z,9.90
2019-03-29T21:02:58.943Z,10.17
2019-03-29T21:05:27.311Z,12.13
2019-03-29T21:07:55.690Z,11.03
2019-03-29T21:10:24.067Z,10.67
2019-03-29T21:12:52.470Z,12.60
2019-03-29T21:15:20.901Z,13.03
2019-03-29T21:17:56.657Z,11.30
2019-03-29T21:20:19.424Z,11.77
2019-03-29T21:22:47.784Z,10.73
2019-03-29T21:25:16.101Z,11.57
2019-03-29T21:27:44.338Z,9.30
2019-03-29T21:30:14.479Z,10.73
2019-03-29T21:32:42.808Z,11.23
2019-03-29T21:35:11.236Z,11.63
2019-03-29T21:37:39.519Z,9.53
2019-03-29T21:40:12.331Z,10.90
2019-03-29T21:42:45.126Z,11.10
2019-03-29T21:45:27.685Z,10.90
2019-03-29T21:47:43.439Z,10.53
2019-03-29T21:50:11.963Z,11.33
2019-03-29T21:52:40.285Z,9.60
2019-03-29T21:55:08.905Z,12.50
2019-03-29T21:57:37.236Z,9.43
2019-03-29T22:00:07.062Z,10.40
2019-03-29T22:02:36.879Z,10.47
2019-03-29T22:05:05.867Z,9.67
2019-03-29T22:07:34.271Z,9.23
2019-03-29T22:10:02.951Z,11.73
2019-03-29T22:12:31.356Z,10.13
2019-03-29T22:14:59.707Z,11.07
2019-03-29T22:17:27.890Z,11.50
2019-03-29T22:19:56.127Z,11.90
2019-03-29T22:22:24.529Z,9.47
2019-03-29T22:24:52.712Z,13.43
2019-03-29T22:27:21.157Z,12.10
2019-03-29T22:29:49.431Z,14.13
2019-03-29T22:32:17.608Z,13.73
2019-03-29T22:34:45.963Z,11.60
2019-03-29T22:37:14.208Z,11.00
2019-03-29T22:39:42.534Z,15.70
2019-03-29T22:42:10.931Z,13.90
2019-03-29T22:44:39.223Z,12.20
2019-03-29T22:47:07.559Z,11.20
2019-03-29T22:49:35.913Z,12.30
2019-03-29T22:52:04.173Z,13.10
2019-03-29T22:54:32.578Z,15.13
2019-03-29T22:57:00.839Z,12.90
2019-03-29T22:59:30.023Z,12.03
2019-03-29T23:01:58.415Z,13.63
2019-03-29T23:04:26.790Z,12.90
2019-03-29T23:06:55.067Z,10.47
2019-03-29T23:09:23.401Z,16.40
2019-03-29T23:11:53.341Z,12.90
2019-03-29T23:14:21.745Z,15.13
2019-03-29T23:16:50.227Z,13.60
2019-03-29T23:19:18.649Z,15.43
2019-03-29T23:21:47.238Z,13.00
2019-03-29T23:24:15.553Z,13.80
2019-03-29T23:26:43.960Z,17.20
2019-03-29T23:29:12.354Z,14.23
2019-03-29T23:31:40.917Z,14.40
2019-03-29T23:34:09.251Z,16.47
2019-03-29T23:36:37.681Z,14.00
2019-03-29T23:39:06.129Z,15.23
2019-03-29T23:41:34.475Z,13.83
2019-03-29T23:44:02.847Z,13.90
2019-03-29T23:46:31.225Z,15.50
2019-03-29T23:48:59.473Z,15.77
2019-03-29T23:51:28.687Z,13.30
2019-03-29T23:53:57.063Z,15.67
2019-03-29T23:56:25.452Z,13.27
2019-03-29T23:58:53.719Z,12.00
